Terminal Aerodrome Forecast
Issued by NWS Cleveland, OH

Home | Current Version | Previous Version | Graphics & Text | Print | Product List | Glossary On
Versions: 1 2 3 4 5 6 7 8 9 10 11 12 13 14 15 16 17 18
000
FTUS41 KCLE 191100
TAFERI
TAF
KERI 191121Z 1912/2012 00000KT P6SM SCT250
     FM191800 03008KT P6SM BKN100
     FM200200 15006KT 6SM -TSRA SCT035CB OVC050
     FM200900 18007KT 4SM BR VCSH OVC050=

USA.gov is the U.S. government's official web portal to all federal, state and local government web resources and services.